Time;durP1;ratioP1;P1;durP2;ratioP2;P2;SDS_P1;SDS_P2;PMS_P1;PMS_P2;Temp;Humidity;BMP_temperature;BMP_pressure;BME280_temperature;BME280_humidity;BME280_pressure;Samples;Min_cycle;Max_cycle;Signal;HPM_P1;HPM_P2
2023/07/01 00:01:05;;;;;;;1.55;1.55;;;;;;;16.61;91.68;96609.91;5045724;28;20049;-61
2023/07/01 00:03:32;;;;;;;1.52;1.52;;;;;;;16.37;92.60;96585.06;5045950;28;20044;-61
2023/07/01 00:06:00;;;;;;;1.40;1.40;;;;;;;16.49;93.56;96610.47;5045571;28;20089;-60
2023/07/01 00:08:27;;;;;;;1.42;1.42;;;;;;;16.18;92.95;96561.34;5045420;28;20527;-61
2023/07/01 00:10:58;;;;;;;1.50;1.50;;;;;;;16.38;91.08;96587.44;5060370;28;20530;-63
2023/07/01 00:13:25;;;;;;;1.50;1.50;;;;;;;16.46;91.58;96608.53;5045779;28;20110;-64
2023/07/01 00:15:51;;;;;;;1.50;1.50;;;;;;;16.42;92.37;96596.53;5045376;28;20049;-61
2023/07/01 00:18:18;;;;;;;1.30;1.30;;;;;;;16.69;92.46;96624.59;5045440;28;20056;-63
2023/07/01 00:20:46;;;;;;;1.48;1.48;;;;;;;16.82;93.03;96655.59;5045132;28;20052;-64
2023/07/01 00:23:13;;;;;;;1.30;1.30;;;;;;;15.39;91.99;96421.47;5043940;28;20171;-61
2023/07/01 00:25:40;;;;;;;1.40;1.40;;;;;;;16.54;91.97;96584.03;5045626;28;20049;-61
2023/07/01 00:28:06;;;;;;;1.55;1.55;;;;;;;16.94;92.56;96641.03;5045446;28;20053;-63
2023/07/01 00:30:33;;;;;;;1.50;1.50;;;;;;;16.72;91.68;96592.19;5043730;28;20125;-62
2023/07/01 00:33:01;;;;;;;1.70;1.70;;;;;;;17.03;92.18;96630.09;5044976;28;20049;-63
2023/07/01 00:35:28;;;;;;;1.40;1.40;;;;;;;16.88;91.33;96603.56;5031559;28;20053;-64
2023/07/01 00:37:54;;;;;;;1.60;1.60;;;;;;;16.91;91.56;96627.88;5040050;28;20049;-61
2023/07/01 00:40:21;;;;;;;1.50;1.50;;;;;;;16.79;92.66;96634.06;5024598;28;20550;-62
2023/07/01 00:42:48;;;;;;;1.60;1.60;;;;;;;16.58;92.72;96590.41;5024853;28;20064;-61
2023/07/01 00:45:14;;;;;;;1.40;1.40;;;;;;;16.63;91.94;96614.31;5040140;28;20057;-62
2023/07/01 00:47:41;;;;;;;1.33;1.33;;;;;;;16.69;91.80;96602.22;5039658;28;20191;-63
2023/07/01 00:50:11;;;;;;;1.58;1.58;;;;;;;16.92;91.51;96618.28;5039174;28;20540;-63
2023/07/01 00:52:39;;;;;;;1.50;1.50;;;;;;;16.64;91.53;96581.09;5024771;28;20049;-62
2023/07/01 00:55:07;;;;;;;1.30;1.30;;;;;;;16.82;93.01;96622.81;5039610;28;20053;-62
2023/07/01 00:57:34;;;;;;;1.40;1.40;;;;;;;16.67;91.56;96587.06;5023490;28;20401;-62
2023/07/01 01:00:04;;;;;;;1.65;1.65;;;;;;;16.74;91.55;96587.75;5024919;28;20061;-64
2023/07/01 01:02:37;;;;;;;1.40;1.40;;;;;;;16.82;91.61;96605.25;5025040;28;20049;-61
2023/07/01 01:05:12;;;;;;;1.45;1.45;;;;;;;16.66;92.43;96591.09;5025067;28;20049;-63
2023/07/01 01:07:48;;;;;;;1.38;1.38;;;;;;;16.91;92.59;96613.91;5024482;28;20060;-61
2023/07/01 01:10:22;;;;;;;1.50;1.50;;;;;;;16.35;93.47;96548.34;5024288;28;20053;-62
2023/07/01 01:12:53;;;;;;;1.52;1.52;;;;;;;16.65;93.87;96612.66;5024380;28;20049;-61
2023/07/01 01:15:20;;;;;;;1.60;1.60;;;;;;;16.45;93.12;96576.16;5024399;28;20431;-62
2023/07/01 01:17:50;;;;;;;1.40;1.40;;;;;;;16.66;93.56;96614.22;5024371;28;20064;-61
2023/07/01 01:20:20;;;;;;;1.48;1.48;;;;;;;15.79;93.57;96482.78;5037228;28;20205;-61
2023/07/01 01:23:02;;;;;;;1.40;1.40;;;;;;;16.61;92.90;96615.50;5044411;28;20083;-62
2023/07/01 01:25:37;;;;;;;1.40;1.40;;;;;;;16.25;94.22;96594.78;5042991;28;20076;-62
2023/07/01 01:28:04;;;;;;;1.45;1.45;;;;;;;16.33;93.80;96613.03;5044214;28;20045;-65
2023/07/01 01:30:33;;;;;;;1.30;1.30;;;;;;;16.30;93.76;96608.28;5044095;28;20063;-62
2023/07/01 01:33:00;;;;;;;1.42;1.42;;;;;;;15.76;94.63;96533.91;5044039;28;20098;-62
2023/07/01 01:35:27;;;;;;;1.50;1.50;;;;;;;16.21;94.76;96610.00;5017213;28;20287;-65
2023/07/01 01:38:06;;;;;;;1.50;1.50;;;;;;;16.04;95.55;96589.47;5024742;28;20354;-62
2023/07/01 01:40:43;;;;;;;1.33;1.33;;;;;;;16.05;95.50;96579.84;5024257;28;20068;-62
2023/07/01 01:43:20;;;;;;;1.33;1.33;;;;;;;16.07;96.97;96588.63;5024144;28;20781;-61
2023/07/01 01:45:48;;;;;;;1.38;1.38;;;;;;;15.64;95.78;96498.13;5024209;28;20059;-62
2023/07/01 01:48:15;;;;;;;1.38;1.38;;;;;;;16.02;94.08;96569.50;5024204;28;20045;-62
2023/07/01 01:50:47;;;;;;;1.35;1.35;;;;;;;16.16;94.98;96586.09;5024061;28;20058;-62
2023/07/01 01:53:15;;;;;;;1.40;1.40;;;;;;;15.89;95.17;96546.13;5024128;28;20049;-62
2023/07/01 01:55:42;;;;;;;1.27;1.27;;;;;;;16.07;95.78;96583.03;5038857;28;20045;-62
2023/07/01 01:58:09;;;;;;;1.50;1.50;;;;;;;15.85;96.72;96552.97;5024039;28;20049;-64
2023/07/01 02:00:36;;;;;;;1.40;1.40;;;;;;;15.46;97.16;96553.38;5023491;28;20588;-62
2023/07/01 02:03:03;;;;;;;1.30;1.30;;;;;;;15.42;97.45;96496.78;5021144;28;20095;-62
2023/07/01 02:05:30;;;;;;;1.30;1.30;;;;;;;15.94;96.77;96578.38;5047884;28;20053;-62
2023/07/01 02:07:56;;;;;;;1.38;1.38;;;;;;;16.00;97.22;96594.28;5047779;28;20581;-61
2023/07/01 02:10:23;;;;;;;1.20;1.20;;;;;;;15.93;97.26;96594.34;5047770;28;20048;-62
2023/07/01 02:12:50;;;;;;;1.40;1.40;;;;;;;15.30;97.02;96497.28;5047564;28;20056;-62
2023/07/01 02:15:16;;;;;;;1.38;1.38;;;;;;;15.25;96.43;96496.94;5047673;28;20052;-62
2023/07/01 02:17:43;;;;;;;1.40;1.40;;;;;;;15.53;96.56;96553.31;5047761;28;20573;-63
2023/07/01 02:20:11;;;;;;;1.33;1.33;;;;;;;15.55;97.13;96545.31;5047306;28;20049;-63
2023/07/01 02:22:38;;;;;;;1.30;1.30;;;;;;;15.79;96.88;96585.34;5047331;28;20053;-65
2023/07/01 02:25:05;;;;;;;1.30;1.30;;;;;;;15.60;95.80;96558.78;5046544;28;20052;-62
2023/07/01 02:27:32;;;;;;;1.20;1.20;;;;;;;15.18;96.64;96506.97;5047362;28;20055;-62
2023/07/01 02:29:59;;;;;;;1.30;1.30;;;;;;;15.66;97.21;96573.91;5047559;28;20045;-63
2023/07/01 02:32:26;;;;;;;1.40;1.40;;;;;;;15.54;97.34;96588.38;5047285;28;20051;-62
2023/07/01 02:34:53;;;;;;;1.30;1.30;;;;;;;15.71;98.30;96592.97;5042856;28;20045;-64
2023/07/01 02:37:19;;;;;;;1.50;1.50;;;;;;;15.81;98.43;96606.06;5025658;28;20053;-62
2023/07/01 02:39:47;;;;;;;1.40;1.40;;;;;;;15.70;99.45;96607.38;5026846;28;20540;-63
2023/07/01 02:42:19;;;;;;;1.30;1.30;;;;;;;15.79;99.69;96605.66;5025852;28;20099;-63
2023/07/01 02:44:47;;;;;;;1.40;1.40;;;;;;;15.67;99.47;96586.66;5026883;28;20049;-64
2023/07/01 02:47:14;;;;;;;1.48;1.48;;;;;;;15.36;99.87;96543.09;5026968;28;20045;-62
2023/07/01 02:49:41;;;;;;;1.23;1.23;;;;;;;15.84;100.00;96608.03;5025763;28;20054;-62
2023/07/01 02:52:09;;;;;;;1.35;1.35;;;;;;;15.70;99.58;96579.44;5027123;28;20933;-62
2023/07/01 02:54:40;;;;;;;1.35;1.35;;;;;;;15.76;99.57;96572.22;5025596;28;20060;-62
2023/07/01 02:57:08;;;;;;;1.20;1.20;;;;;;;15.77;98.26;96563.44;5025722;28;20420;-63
2023/07/01 02:59:36;;;;;;;1.30;1.30;;;;;;;16.06;98.84;96592.59;5026732;28;20060;-63
2023/07/01 03:02:06;;;;;;;1.30;1.30;;;;;;;16.14;98.45;96605.28;5030546;28;20514;-63
2023/07/01 03:04:33;;;;;;;1.42;1.42;;;;;;;15.85;97.98;96564.13;5046573;28;20064;-62
2023/07/01 03:07:00;;;;;;;1.30;1.30;;;;;;;16.09;97.72;96580.59;5046633;28;20056;-62
2023/07/01 03:09:27;;;;;;;1.35;1.35;;;;;;;16.00;95.96;96574.72;5047283;28;20049;-62
2023/07/01 03:11:54;;;;;;;1.45;1.45;;;;;;;15.91;95.17;96549.28;5047010;28;20049;-62
2023/07/01 03:14:21;;;;;;;1.48;1.48;;;;;;;15.69;95.60;96517.22;5046016;28;20068;-63
2023/07/01 03:16:49;;;;;;;1.38;1.38;;;;;;;15.83;95.62;96533.81;5046478;28;20135;-62
2023/07/01 03:19:16;;;;;;;1.33;1.33;;;;;;;16.03;95.55;96584.25;5046248;28;20057;-62
2023/07/01 03:21:45;;;;;;;1.33;1.33;;;;;;;16.04;96.75;96589.47;5046518;28;20053;-62
2023/07/01 03:24:12;;;;;;;1.30;1.30;;;;;;;16.23;96.06;96602.78;5046584;28;20094;-62
2023/07/01 03:26:38;;;;;;;1.27;1.27;;;;;;;15.99;95.51;96547.19;5046299;28;20127;-62
2023/07/01 03:29:05;;;;;;;1.58;1.58;;;;;;;15.99;95.11;96542.41;5046657;28;20081;-62
2023/07/01 03:31:32;;;;;;;1.25;1.25;;;;;;;16.21;94.01;96560.50;5046059;28;20060;-63
2023/07/01 03:34:00;;;;;;;1.63;1.63;;;;;;;16.11;92.55;96522.28;5044843;28;20346;-64
2023/07/01 03:36:27;;;;;;;1.55;1.55;;;;;;;16.58;92.65;96585.56;5046008;28;20056;-65
2023/07/01 03:38:56;;;;;;;1.50;1.50;;;;;;;16.16;91.71;96513.44;5044626;28;20053;-62
2023/07/01 03:41:22;;;;;;;1.40;1.40;;;;;;;16.69;90.31;96579.06;5077930;28;20053;-62
2023/07/01 03:43:49;;;;;;;1.50;1.50;;;;;;;16.71;90.81;96587.81;5046043;28;20063;-64
2023/07/01 03:46:16;;;;;;;1.55;1.55;;;;;;;16.89;91.04;96591.94;5045652;28;20080;-62
2023/07/01 03:48:43;;;;;;;1.50;1.50;;;;;;;16.80;91.09;96557.31;5044315;28;20056;-64
2023/07/01 03:51:10;;;;;;;1.55;1.55;;;;;;;17.20;90.09;96603.88;5045616;28;20053;-62
2023/07/01 03:53:37;;;;;;;1.60;1.60;;;;;;;16.56;90.13;96500.53;5045651;28;20071;-63
2023/07/01 03:56:04;;;;;;;1.52;1.52;;;;;;;16.67;90.66;96508.75;5045540;28;20048;-62
2023/07/01 03:58:30;;;;;;;1.50;1.50;;;;;;;17.06;90.00;96559.28;5045951;28;20057;-63
2023/07/01 04:00:57;;;;;;;1.50;1.50;;;;;;;17.52;89.49;96610.53;5045380;28;20118;-65
2023/07/01 04:03:24;;;;;;;1.67;1.67;;;;;;;17.28;89.73;96557.72;5045451;28;20080;-64
2023/07/01 04:05:52;;;;;;;1.50;1.50;;;;;;;17.65;89.08;96602.31;5045464;28;20049;-65
2023/07/01 04:08:18;;;;;;;1.70;1.70;;;;;;;17.60;89.35;96583.19;5076908;28;20057;-63
2023/07/01 04:10:45;;;;;;;1.55;1.55;;;;;;;17.88;88.59;96616.28;5044128;28;20049;-62
2023/07/01 04:13:12;;;;;;;1.60;1.60;;;;;;;17.84;87.72;96593.97;5045250;28;20059;-63
2023/07/01 04:15:39;;;;;;;1.77;1.77;;;;;;;18.01;87.06;96592.84;5045419;28;20474;-63
2023/07/01 04:18:06;;;;;;;1.90;1.90;;;;;;;17.98;86.84;96560.06;5043904;28;20059;-64
2023/07/01 04:20:32;;;;;;;1.88;1.88;;;;;;;17.70;86.37;96492.59;5044989;28;20110;-62
2023/07/01 04:22:59;;;;;;;1.77;1.77;;;;;;;18.13;86.82;96555.75;5045612;28;20053;-63
2023/07/01 04:25:28;;;;;;;1.95;1.95;;;;;;;18.46;86.24;96590.38;5044892;28;20094;-63
2023/07/01 04:27:56;;;;;;;2.00;2.00;;;;;;;18.47;87.05;96602.34;5045080;28;20571;-62
2023/07/01 04:30:24;;;;;;;1.80;1.80;;;;;;;18.69;86.19;96597.88;5045039;28;20061;-63
2023/07/01 04:32:50;;;;;;;1.77;1.77;;;;;;;18.92;84.40;96606.97;5053616;28;20676;-61
2023/07/01 04:35:17;;;;;;;1.80;1.80;;;;;;;17.80;83.92;96413.09;5063216;28;20048;-65
2023/07/01 04:37:44;;;;;;;2.10;2.10;;;;;;;19.02;83.69;96571.44;5063802;28;20499;-67
2023/07/01 04:40:12;;;;;;;1.92;1.92;;;;;;;18.64;83.13;96478.53;5054191;28;20053;-65
2023/07/01 04:42:51;;;;;;;2.10;2.10;;;;;;;19.35;83.21;96556.22;5063144;28;20491;-65
2023/07/01 04:45:18;;;;;;;2.00;2.00;;;;;;;19.80;81.06;96575.94;5064563;28;20063;-61
2023/07/01 04:47:46;;;;;;;2.17;2.17;;;;;;;19.95;79.53;96582.78;5064038;28;20486;-65
2023/07/01 04:50:13;;;;;;;1.90;1.90;;;;;;;19.43;79.18;96507.06;5063944;28;20052;-61
2023/07/01 04:52:41;;;;;;;2.20;2.20;;;;;;;19.74;79.32;96566.47;5063537;28;20055;-62
2023/07/01 04:55:08;;;;;;;2.33;2.30;;;;;;;20.09;78.94;96560.66;5063212;28;20103;-62
2023/07/01 04:57:35;;;;;;;2.17;2.17;;;;;;;18.92;77.87;96345.94;5072149;28;20143;-62
2023/07/01 05:00:05;;;;;;;2.15;2.15;;;;;;;20.63;77.36;96583.25;5064358;28;20120;-64
2023/07/01 05:02:31;;;;;;;2.15;2.15;;;;;;;20.52;76.62;96557.44;5062698;28;20066;-63
2023/07/01 05:04:59;;;;;;;1.95;1.95;;;;;;;20.81;76.79;96583.50;5064106;28;20060;-64
2023/07/01 05:07:26;;;;;;;2.28;2.28;;;;;;;19.45;77.42;96369.75;5063474;28;20052;-63
2023/07/01 05:09:52;;;;;;;2.55;2.45;;;;;;;20.57;76.95;96512.66;5062921;28;20075;-62
2023/07/01 05:12:19;;;;;;;2.10;2.10;;;;;;;21.16;76.96;96588.09;5064332;28;20044;-63
2023/07/01 05:14:46;;;;;;;2.13;2.13;;;;;;;20.11;76.87;96389.47;5062909;28;20052;-64
2023/07/01 05:17:13;;;;;;;2.15;2.15;;;;;;;21.28;76.76;96542.19;5063896;28;20054;-62
2023/07/01 05:19:39;;;;;;;2.17;2.17;;;;;;;21.69;76.42;96564.56;5064056;28;20146;-62
2023/07/01 05:22:06;;;;;;;2.03;2.03;;;;;;;21.64;76.30;96539.00;5064225;28;20426;-65
2023/07/01 05:24:33;;;;;;;2.30;2.30;;;;;;;22.14;74.77;96573.50;5063632;28;20048;-64
2023/07/01 05:26:59;;;;;;;2.67;2.58;;;;;;;21.53;75.22;96494.22;5063518;28;20049;-63
2023/07/01 05:29:28;;;;;;;2.65;2.55;;;;;;;21.68;75.58;96517.09;5062434;28;20055;-62
2023/07/01 05:31:56;;;;;;;2.58;2.47;;;;;;;21.89;76.37;96553.81;5063191;28;20088;-61
2023/07/01 05:34:23;;;;;;;2.60;2.50;;;;;;;21.59;78.12;96576.22;5059619;28;20040;-63
2023/07/01 05:36:50;;;;;;;2.53;2.42;;;;;;;21.77;80.47;96577.19;5058056;28;20040;-64
2023/07/01 05:39:17;;;;;;;2.63;2.53;;;;;;;21.60;77.04;96536.28;5046712;28;20064;-64
2023/07/01 05:41:45;;;;;;;2.40;2.35;;;;;;;21.50;77.57;96562.03;5050905;28;20053;-64
2023/07/01 05:44:12;;;;;;;2.40;2.35;;;;;;;21.44;78.12;96499.78;5053202;28;20048;-60
2023/07/01 05:46:40;;;;;;;2.20;2.20;;;;;;;22.21;75.16;96567.56;5061697;28;20509;-64
2023/07/01 05:49:08;;;;;;;2.40;2.35;;;;;;;22.40;76.45;96586.22;5063554;28;20086;-64
2023/07/01 05:51:36;;;;;;;2.95;2.85;;;;;;;22.30;75.23;96547.88;5060057;28;20044;-63
2023/07/01 05:54:03;;;;;;;2.70;2.60;;;;;;;22.22;73.53;96524.00;5063198;28;20090;-62
2023/07/01 05:56:30;;;;;;;2.58;2.47;;;;;;;20.77;72.71;96368.88;5062828;28;20431;-63
2023/07/01 05:58:57;;;;;;;2.58;2.47;;;;;;;21.70;68.49;96521.03;5063487;28;20056;-62
2023/07/01 06:01:23;;;;;;;2.50;2.40;;;;;;;21.77;70.96;96543.38;5061681;28;20087;-61
2023/07/01 06:03:50;;;;;;;2.50;2.40;;;;;;;22.05;65.82;96548.00;5058537;28;20052;-67
2023/07/01 06:06:17;;;;;;;2.72;2.63;;;;;;;22.40;66.47;96523.31;5061332;28;20542;-67
2023/07/01 06:08:44;;;;;;;2.58;2.47;;;;;;;22.30;67.84;96541.47;5060279;28;20592;-66
2023/07/01 06:11:10;;;;;;;2.47;2.38;;;;;;;22.67;67.50;96548.94;5063369;28;20060;-62
2023/07/01 06:13:38;;;;;;;2.70;2.60;;;;;;;22.87;65.71;96507.03;5060947;28;20047;-70
2023/07/01 06:16:05;;;;;;;2.70;2.60;;;;;;;23.22;65.89;96516.88;5057614;28;20049;-61
2023/07/01 06:18:32;;;;;;;2.78;2.67;;;;;;;23.48;63.08;96545.72;5060964;28;20044;-67
2023/07/01 06:21:01;;;;;;;2.80;2.70;;;;;;;23.35;65.10;96513.94;5061888;28;20564;-67
2023/07/01 06:23:28;;;;;;;2.78;2.67;;;;;;;22.77;63.41;96400.09;5063391;28;20139;-63
2023/07/01 06:25:54;;;;;;;2.92;2.83;;;;;;;23.31;62.67;96428.53;5060754;28;20161;-62
2023/07/01 06:28:21;;;;;;;3.08;2.97;;;;;;;24.21;63.59;96547.41;5060478;28;20061;-66
2023/07/01 06:30:48;;;;;;;2.92;2.83;;;;;;;24.43;62.54;96542.38;5061187;28;20490;-62
2023/07/01 06:33:15;;;;;;;3.33;3.22;;;;;;;24.55;61.74;96527.25;5059868;28;20136;-62
2023/07/01 06:35:43;;;;;;;3.53;3.42;;;;;;;24.63;61.06;96505.81;5059324;28;21469;-61
2023/07/01 06:38:09;;;;;;;3.30;3.20;;;;;;;24.90;59.55;96531.28;5058821;28;20054;-64
2023/07/01 06:40:36;;;;;;;3.03;2.92;;;;;;;24.62;62.27;96543.13;5059780;28;20526;-65
2023/07/01 06:43:03;;;;;;;3.40;3.30;;;;;;;24.88;62.74;96567.81;5060108;28;20135;-64
2023/07/01 06:45:31;;;;;;;3.20;3.10;;;;;;;24.69;61.39;96549.28;5060822;28;20639;-62
2023/07/01 06:47:59;;;;;;;3.00;2.90;;;;;;;24.66;63.86;96569.25;5057806;28;20058;-63
2023/07/01 06:50:25;;;;;;;2.83;2.72;;;;;;;25.08;60.74;96564.44;5064781;28;20537;-67
2023/07/01 06:52:52;;;;;;;3.20;3.10;;;;;;;24.67;60.26;96556.69;5064703;28;20059;-63
2023/07/01 06:55:19;;;;;;;3.13;3.03;;;;;;;23.84;59.12;96374.00;5065678;28;20058;-66
2023/07/01 06:57:46;;;;;;;3.08;2.97;;;;;;;24.70;61.45;96550.06;5061249;28;20055;-67
2023/07/01 07:00:13;;;;;;;3.13;3.03;;;;;;;25.08;59.72;96565.25;5066474;28;20323;-68
2023/07/01 07:02:40;;;;;;;3.13;3.03;;;;;;;25.35;58.01;96557.91;5066007;28;20150;-65
2023/07/01 07:05:08;;;;;;;3.40;3.30;;;;;;;25.68;57.30;96545.28;5065555;28;20079;-66
2023/07/01 07:07:35;;;;;;;3.50;3.40;;;;;;;25.83;54.74;96537.63;5064622;28;20048;-67
2023/07/01 07:10:03;;;;;;;3.28;3.17;;;;;;;25.94;53.19;96552.03;5047685;28;20063;-60
2023/07/01 07:12:30;;;;;;;3.67;3.58;;;;;;;25.51;53.92;96506.47;5059275;28;20045;-64
2023/07/01 07:14:56;;;;;;;3.25;3.15;;;;;;;25.89;55.02;96566.13;5062676;28;20056;-65
2023/07/01 07:17:23;;;;;;;3.65;3.55;;;;;;;25.50;53.38;96485.06;5064800;28;20056;-61
2023/07/01 07:19:50;;;;;;;3.40;3.30;;;;;;;24.93;54.11;96453.81;5064421;28;20106;-61
2023/07/01 07:22:17;;;;;;;3.25;3.15;;;;;;;25.31;55.19;96567.34;5064230;28;20059;-67
2023/07/01 07:24:43;;;;;;;3.20;3.10;;;;;;;24.80;56.08;96543.91;5065234;28;20064;-62
2023/07/01 07:27:10;;;;;;;3.40;3.30;;;;;;;24.54;57.40;96508.69;5055451;28;20052;-64
2023/07/01 07:29:38;;;;;;;3.63;3.53;;;;;;;25.30;57.36;96547.97;5061009;28;20059;-62
2023/07/01 07:32:05;;;;;;;3.42;3.33;;;;;;;25.30;56.92;96511.91;5065135;28;20176;-67
2023/07/01 07:34:32;;;;;;;3.53;3.42;;;;;;;25.69;55.69;96489.34;5028767;28;20527;-61
2023/07/01 07:36:59;;;;;;;3.20;3.10;;;;;;;25.86;55.22;96521.69;5025393;28;20432;-65
2023/07/01 07:39:25;;;;;;;3.63;3.53;;;;;;;25.40;56.35;96511.88;5025674;28;20065;-66
2023/07/01 07:41:52;;;;;;;3.55;3.45;;;;;;;26.19;55.49;96550.81;5024485;28;20045;-67
2023/07/01 07:44:19;;;;;;;3.63;3.53;;;;;;;26.32;54.74;96508.72;5025637;28;20436;-62
2023/07/01 07:46:46;;;;;;;3.88;3.78;;;;;;;26.63;54.00;96494.84;5022340;28;20049;-65
2023/07/01 07:49:12;;;;;;;3.70;3.60;;;;;;;26.64;52.61;96547.59;5024601;28;20047;-64
2023/07/01 07:51:39;;;;;;;4.15;4.05;;;;;;;27.05;50.65;96523.75;5023680;28;20057;-62
2023/07/01 07:54:06;;;;;;;4.30;4.20;;;;;;;26.87;53.60;96526.81;5023923;28;20129;-64
2023/07/01 07:56:32;;;;;;;3.70;3.60;;;;;;;26.55;52.66;96487.97;5024128;28;20054;-65
2023/07/01 07:58:59;;;;;;;3.80;3.70;;;;;;;26.63;53.38;96486.31;5023297;28;20060;-65
2023/07/01 08:01:26;;;;;;;4.18;4.07;;;;;;;27.39;51.31;96522.28;5038762;28;20717;-62
2023/07/01 08:03:53;;;;;;;3.75;3.65;;;;;;;27.44;50.58;96508.13;5024319;28;20107;-62
2023/07/01 08:06:20;;;;;;;4.15;4.05;;;;;;;27.32;48.82;96472.25;5040257;28;20127;-62
2023/07/01 08:08:46;;;;;;;3.90;3.80;;;;;;;27.07;48.80;96460.72;5025831;28;20053;-62
2023/07/01 08:11:13;;;;;;;3.75;3.65;;;;;;;25.79;50.60;96344.06;5024279;28;20595;-66
2023/07/01 08:13:40;;;;;;;3.88;3.78;;;;;;;26.51;50.10;96484.53;5022337;28;20053;-63
2023/07/01 08:16:06;;;;;;;3.97;3.88;;;;;;;26.43;49.81;96492.66;5024662;28;20045;-63
2023/07/01 08:18:33;;;;;;;4.03;3.92;;;;;;;27.17;49.89;96534.06;5022065;28;20468;-61
2023/07/01 08:21:00;;;;;;;4.25;4.15;;;;;;;27.66;49.83;96534.06;5024170;28;20523;-71
2023/07/01 08:23:26;;;;;;;3.85;3.75;;;;;;;27.65;48.83;96497.53;5022076;28;20076;-67
2023/07/01 08:25:53;;;;;;;4.60;4.50;;;;;;;27.43;49.33;96512.25;5024283;28;20512;-64
2023/07/01 08:28:20;;;;;;;4.00;3.90;;;;;;;27.65;48.49;96523.97;5023301;28;20805;-62
2023/07/01 08:30:46;;;;;;;3.97;3.88;;;;;;;27.15;49.31;96456.19;5040256;28;20045;-65
2023/07/01 08:33:13;;;;;;;3.95;3.85;;;;;;;27.24;49.87;96488.13;5023371;28;20496;-62
2023/07/01 08:35:40;;;;;;;4.22;4.13;;;;;;;27.77;49.88;96522.81;5023913;28;20052;-66
2023/07/01 08:38:07;;;;;;;4.30;4.20;;;;;;;27.90;49.11;96472.03;5023495;28;20132;-66
2023/07/01 08:40:33;;;;;;;3.88;3.78;;;;;;;26.66;50.64;96408.63;5024194;28;20115;-62
2023/07/01 08:43:06;;;;;;;3.88;3.78;;;;;;;27.29;51.43;96517.97;5024653;28;20053;-61
2023/07/01 08:45:33;;;;;;;3.72;3.63;;;;;;;27.20;50.80;96476.19;5024702;28;20050;-64
2023/07/01 08:48:03;;;;;;;3.75;3.65;;;;;;;27.88;49.82;96508.78;5023938;28;20497;-61
2023/07/01 08:50:52;;;;;;;4.03;3.92;;;;;;;27.78;50.67;96441.06;5022797;28;20057;-62
2023/07/01 08:53:19;;;;;;;4.28;4.18;;;;;;;28.09;49.97;96490.41;5022447;28;20061;-64
2023/07/01 08:55:46;;;;;;;4.07;3.97;;;;;;;28.64;48.58;96495.97;5020944;28;20144;-62
2023/07/01 08:58:14;;;;;;;4.20;4.10;;;;;;;28.22;48.39;96478.63;5034003;28;20471;-64
2023/07/01 09:00:45;;;;;;;3.63;3.53;;;;;;;28.02;49.32;96433.09;5023487;28;20049;-63
2023/07/01 09:03:15;;;;;;;4.22;4.13;;;;;;;27.70;49.01;96308.97;5020158;28;20565;-62
2023/07/01 09:05:42;;;;;;;4.32;4.22;;;;;;;28.65;48.10;96468.22;5016751;28;20601;-64
2023/07/01 09:08:08;;;;;;;4.15;4.05;;;;;;;29.00;47.69;96471.66;5021830;28;20057;-64
2023/07/01 09:10:35;;;;;;;4.28;4.18;;;;;;;29.51;47.90;96460.13;5022080;28;20057;-63
2023/07/01 09:13:11;;;;;;;4.75;4.65;;;;;;;29.97;46.96;96463.50;5022094;28;20132;-60
2023/07/01 09:15:44;;;;;;;4.63;4.53;;;;;;;29.66;46.03;96397.94;5022168;28;20048;-65
2023/07/01 09:18:29;;;;;;;4.47;4.38;;;;;;;30.25;45.68;96470.16;5022689;28;20053;-65
2023/07/01 09:20:57;;;;;;;4.50;4.40;;;;;;;30.26;44.92;96445.97;5015270;28;20144;-65
2023/07/01 09:23:26;;;;;;;4.50;4.40;;;;;;;30.06;44.41;96409.00;5022386;28;20049;-64
2023/07/01 09:26:19;;;;;;;4.25;4.15;;;;;;;30.72;43.36;96446.31;5023671;28;20048;-63
2023/07/01 09:28:49;;;;;;;5.07;4.97;;;;;;;30.48;41.61;96388.06;5040727;28;20069;-70
2023/07/01 09:31:17;;;;;;;4.35;4.25;;;;;;;30.67;42.02;96440.59;5022235;28;20284;-62
2023/07/01 09:34:05;;;;;;;5.15;5.05;;;;;;;30.49;42.12;96372.47;5023250;28;20077;-62
2023/07/01 09:36:32;;;;;;;4.93;4.82;;;;;;;31.02;41.51;96460.13;5022649;28;20084;-63
2023/07/01 09:39:00;;;;;;;4.63;4.53;;;;;;;30.91;42.55;96450.25;5022878;28;20056;-64
2023/07/01 09:41:30;;;;;;;4.40;4.30;;;;;;;31.23;43.24;96447.91;5021590;28;20826;-65
2023/07/01 09:43:58;;;;;;;4.63;4.53;;;;;;;31.38;42.95;96459.88;5023904;28;20046;-63
2023/07/01 09:46:42;;;;;;;4.50;4.40;;;;;;;31.38;41.27;96419.03;5024046;28;20140;-60
2023/07/01 09:49:08;;;;;;;4.43;4.32;;;;;;;30.24;41.84;96302.81;5024301;28;20071;-63
2023/07/01 09:51:51;;;;;;;4.25;4.15;;;;;;;30.93;42.48;96419.06;5023628;28;20131;-64
2023/07/01 09:54:29;;;;;;;4.53;4.43;;;;;;;31.14;41.62;96393.81;5038877;28;20384;-64
2023/07/01 09:56:57;;;;;;;4.47;4.38;;;;;;;30.72;41.98;96443.47;5022489;28;20053;-69
2023/07/01 09:59:26;;;;;;;4.50;4.40;;;;;;;30.06;42.36;96426.16;5022628;28;20058;-63
2023/07/01 10:01:55;;;;;;;4.90;4.80;;;;;;;30.09;42.83;96439.41;5023168;28;20061;-62
2023/07/01 10:04:28;;;;;;;4.72;4.63;;;;;;;30.90;41.63;96413.59;5023398;28;20060;-62
2023/07/01 10:06:57;;;;;;;4.70;4.60;;;;;;;30.92;42.41;96440.38;5021943;28;20072;-64
2023/07/01 10:09:26;;;;;;;4.63;4.53;;;;;;;30.28;43.32;96356.84;5023217;28;20088;-63
2023/07/01 10:11:57;;;;;;;4.65;4.55;;;;;;;29.66;43.05;96249.47;5022388;28;20050;-62
2023/07/01 10:14:27;;;;;;;4.55;4.45;;;;;;;29.99;43.31;96414.44;5022513;28;20479;-64
2023/07/01 10:16:54;;;;;;;4.55;4.45;;;;;;;29.74;45.36;96424.72;5023450;28;20068;-68
2023/07/01 10:19:28;;;;;;;4.53;4.43;;;;;;;30.90;42.90;96427.91;5022571;28;20063;-64
2023/07/01 10:22:20;;;;;;;4.75;4.65;;;;;;;31.65;40.54;96426.75;5021282;28;20060;-61
2023/07/01 10:24:57;;;;;;;5.07;4.97;;;;;;;30.52;40.13;96192.09;5006260;28;20057;-62
2023/07/01 10:27:39;;;;;;;5.00;4.90;;;;;;;32.00;39.64;96418.31;5018700;28;20053;-68
2023/07/01 10:30:08;;;;;;;4.90;4.80;;;;;;;31.71;39.87;96404.63;5024050;28;20512;-64
2023/07/01 10:32:35;;;;;;;4.65;4.55;;;;;;;30.63;40.30;96412.25;5026481;28;20463;-65
2023/07/01 10:35:05;;;;;;;4.53;4.43;;;;;;;30.49;40.93;96410.41;5018617;28;20046;-62
2023/07/01 10:37:33;;;;;;;4.65;4.55;;;;;;;30.34;40.51;96407.00;5005900;28;20158;-61
2023/07/01 10:40:07;;;;;;;4.72;4.63;;;;;;;30.87;40.67;96392.50;5017072;28;20072;-60
2023/07/01 10:42:36;;;;;;;4.47;4.38;;;;;;;31.48;39.24;96405.97;5041425;28;20088;-66
2023/07/01 10:45:12;;;;;;;4.53;4.43;;;;;;;31.96;38.94;96392.03;5090184;28;20501;-69
2023/07/01 10:47:46;;;;;;;4.90;4.80;;;;;;;31.39;39.71;96369.84;5060738;28;20080;-64
2023/07/01 10:50:15;;;;;;;4.53;4.43;;;;;;;30.32;41.01;96369.59;5066449;28;20138;-62
2023/07/01 10:52:57;;;;;;;4.72;4.63;;;;;;;31.33;40.89;96382.59;5047924;28;20041;-63
2023/07/01 10:55:36;;;;;;;5.18;5.07;;;;;;;31.51;40.06;96382.00;5050573;28;20049;-66
2023/07/01 10:58:22;;;;;;;4.53;4.43;;;;;;;31.52;39.82;96340.63;5034293;28;20056;-61
2023/07/01 11:00:53;;;;;;;4.93;4.82;;;;;;;31.07;39.90;96364.91;5063297;28;20064;-66
2023/07/01 11:03:35;;;;;;;4.53;4.43;;;;;;;31.60;39.72;96361.69;5053945;28;20041;-66
2023/07/01 11:06:07;;;;;;;5.00;4.90;;;;;;;32.06;39.69;96353.94;5050613;28;20068;-64
2023/07/01 11:08:43;;;;;;;5.13;5.03;;;;;;;32.40;38.29;96331.59;5045276;28;20060;-73
2023/07/01 11:11:11;;;;;;;5.15;5.05;;;;;;;32.79;37.85;96306.22;5038904;28;20064;-60
2023/07/01 11:13:37;;;;;;;5.20;5.10;;;;;;;31.75;38.54;96299.13;5041286;28;20586;-61
2023/07/01 11:16:04;;;;;;;4.65;4.55;;;;;;;32.48;38.26;96326.03;5044683;28;20133;-59
2023/07/01 11:18:47;;;;;;;5.22;5.13;;;;;;;33.19;37.01;96328.28;5042594;28;20044;-62
2023/07/01 11:21:21;;;;;;;5.53;5.38;;;;;;;33.45;35.35;96276.81;5047226;28;20548;-60
2023/07/01 11:23:51;;;;;;;4.88;4.78;;;;;;;33.89;35.47;96314.91;5063256;28;20062;-64
2023/07/01 11:26:23;;;;;;;5.13;5.03;;;;;;;34.19;35.63;96289.69;5064311;28;20358;-64
2023/07/01 11:28:50;;;;;;;4.93;4.82;;;;;;;34.46;33.82;96277.75;5048778;28;20432;-61
2023/07/01 11:31:20;;;;;;;4.80;4.70;;;;;;;34.60;33.52;96292.97;5058210;28;20048;-65
2023/07/01 11:33:55;;;;;;;5.10;5.00;;;;;;;35.03;32.65;96319.44;5046362;28;20136;-68
2023/07/01 11:36:36;;;;;;;4.72;4.63;;;;;;;35.32;33.10;96295.31;5043129;28;20127;-64
2023/07/01 11:39:14;;;;;;;6.05;5.85;;;;;;;34.14;32.88;96083.50;5058923;28;20539;-61
2023/07/01 11:41:43;;;;;;;5.68;5.47;;;;;;;35.50;33.23;96305.97;5064893;28;20148;-60